Terminal Aerodrome Forecast
Issued by NWS Jacksonville, FL

Home | Current Version | Previous Version | Text Only | Print | Product List | Glossary On
Versions: 1 2 3 4 5 6 7 8 9 10 11 12 13 14 15 16 17 18 19 20 21 22 23 24 25 26 27 28
000
FTUS42 KJAX 280155 AAC
TAFGNV
TAF AMD
KGNV 280155Z 2802/2824 00000KT P6SM BKN015
      TEMPO 2802/2806 SCT015 BKN030
     FM280600 00000KT 3SM BR SCT002
      TEMPO 2808/2812 1/2SM FG BKN002
     FM281300 34006KT P6SM VCSH SCT025=

USA.gov is the U.S. government's official web portal to all federal, state and local government web resources and services.